sensor_id;sensor_type;location;lat;lon;timestamp;P1;durP1;ratioP1;P2;durP2;ratioP2
4726;SDS011;2377;51.734;8.950;2023-05-10T00:02:22;11.30;;;9.60;;
4726;SDS011;2377;51.734;8.950;2023-05-10T00:04:50;12.23;;;9.40;;
4726;SDS011;2377;51.734;8.950;2023-05-10T00:07:17;11.27;;;9.60;;
4726;SDS011;2377;51.734;8.950;2023-05-10T00:09:44;11.33;;;9.70;;
4726;SDS011;2377;51.734;8.950;2023-05-10T00:12:11;12.57;;;9.53;;
4726;SDS011;2377;51.734;8.950;2023-05-10T00:14:38;10.73;;;9.30;;
4726;SDS011;2377;51.734;8.950;2023-05-10T00:17:05;13.50;;;9.80;;
4726;SDS011;2377;51.734;8.950;2023-05-10T00:19:33;11.77;;;9.80;;
4726;SDS011;2377;51.734;8.950;2023-05-10T00:22:00;12.53;;;10.40;;
4726;SDS011;2377;51.734;8.950;2023-05-10T00:24:28;10.93;;;9.47;;
4726;SDS011;2377;51.734;8.950;2023-05-10T00:26:55;12.70;;;9.80;;
4726;SDS011;2377;51.734;8.950;2023-05-10T00:29:22;12.10;;;10.50;;
4726;SDS011;2377;51.734;8.950;2023-05-10T00:31:50;11.57;;;9.90;;
4726;SDS011;2377;51.734;8.950;2023-05-10T00:34:17;13.33;;;10.07;;
4726;SDS011;2377;51.734;8.950;2023-05-10T00:36:45;14.27;;;10.93;;
4726;SDS011;2377;51.734;8.950;2023-05-10T00:39:12;14.00;;;9.53;;
4726;SDS011;2377;51.734;8.950;2023-05-10T00:41:39;11.47;;;8.70;;
4726;SDS011;2377;51.734;8.950;2023-05-10T00:44:06;9.50;;;7.63;;
4726;SDS011;2377;51.734;8.950;2023-05-10T00:46:34;9.60;;;7.37;;
4726;SDS011;2377;51.734;8.950;2023-05-10T00:49:01;9.90;;;7.30;;
4726;SDS011;2377;51.734;8.950;2023-05-10T00:51:29;9.20;;;6.70;;
4726;SDS011;2377;51.734;8.950;2023-05-10T00:53:58;9.30;;;7.50;;
4726;SDS011;2377;51.734;8.950;2023-05-10T00:56:26;7.70;;;6.60;;
4726;SDS011;2377;51.734;8.950;2023-05-10T00:58:54;8.87;;;6.87;;
4726;SDS011;2377;51.734;8.950;2023-05-10T01:01:22;8.60;;;6.43;;
4726;SDS011;2377;51.734;8.950;2023-05-10T01:03:50;7.83;;;6.13;;
4726;SDS011;2377;51.734;8.950;2023-05-10T01:06:17;8.13;;;6.50;;
4726;SDS011;2377;51.734;8.950;2023-05-10T01:08:45;7.47;;;6.00;;
4726;SDS011;2377;51.734;8.950;2023-05-10T01:11:13;7.33;;;5.77;;
4726;SDS011;2377;51.734;8.950;2023-05-10T01:13:41;8.00;;;6.53;;
4726;SDS011;2377;51.734;8.950;2023-05-10T01:16:13;9.83;;;7.33;;
4726;SDS011;2377;51.734;8.950;2023-05-10T01:18:40;8.57;;;7.20;;
4726;SDS011;2377;51.734;8.950;2023-05-10T01:21:19;7.60;;;6.20;;
4726;SDS011;2377;51.734;8.950;2023-05-10T01:24:12;8.67;;;6.47;;
4726;SDS011;2377;51.734;8.950;2023-05-10T01:33:46;8.90;;;6.77;;
4726;SDS011;2377;51.734;8.950;2023-05-10T01:36:23;7.83;;;6.83;;
4726;SDS011;2377;51.734;8.950;2023-05-10T01:38:58;7.80;;;6.30;;
4726;SDS011;2377;51.734;8.950;2023-05-10T01:41:36;7.97;;;6.30;;
4726;SDS011;2377;51.734;8.950;2023-05-10T01:44:16;10.83;;;8.20;;
4726;SDS011;2377;51.734;8.950;2023-05-10T01:46:53;8.47;;;7.10;;
4726;SDS011;2377;51.734;8.950;2023-05-10T01:49:32;8.40;;;6.97;;
4726;SDS011;2377;51.734;8.950;2023-05-10T01:52:06;9.57;;;6.93;;
4726;SDS011;2377;51.734;8.950;2023-05-10T01:54:38;12.00;;;7.80;;
4726;SDS011;2377;51.734;8.950;2023-05-10T01:57:15;11.60;;;7.70;;
4726;SDS011;2377;51.734;8.950;2023-05-10T01:59:46;14.63;;;8.43;;
4726;SDS011;2377;51.734;8.950;2023-05-10T02:02:17;12.43;;;9.67;;
4726;SDS011;2377;51.734;8.950;2023-05-10T02:04:48;10.17;;;8.40;;
4726;SDS011;2377;51.734;8.950;2023-05-10T02:07:19;9.10;;;6.70;;
4726;SDS011;2377;51.734;8.950;2023-05-10T02:09:48;13.50;;;9.17;;
4726;SDS011;2377;51.734;8.950;2023-05-10T02:12:17;13.30;;;9.33;;
4726;SDS011;2377;51.734;8.950;2023-05-10T02:14:46;9.60;;;6.87;;
4726;SDS011;2377;51.734;8.950;2023-05-10T02:17:13;11.73;;;7.03;;
4726;SDS011;2377;51.734;8.950;2023-05-10T02:19:42;8.30;;;6.80;;
4726;SDS011;2377;51.734;8.950;2023-05-10T02:22:13;8.00;;;6.60;;
4726;SDS011;2377;51.734;8.950;2023-05-10T02:24:42;3.90;;;3.17;;
4726;SDS011;2377;51.734;8.950;2023-05-10T02:27:12;4.30;;;3.40;;
4726;SDS011;2377;51.734;8.950;2023-05-10T02:29:41;7.13;;;4.43;;
4726;SDS011;2377;51.734;8.950;2023-05-10T02:32:10;6.97;;;5.97;;
4726;SDS011;2377;51.734;8.950;2023-05-10T02:34:38;7.10;;;6.10;;
4726;SDS011;2377;51.734;8.950;2023-05-10T02:37:07;7.60;;;6.37;;
4726;SDS011;2377;51.734;8.950;2023-05-10T02:39:37;8.37;;;6.93;;
4726;SDS011;2377;51.734;8.950;2023-05-10T02:42:08;9.30;;;6.43;;
4726;SDS011;2377;51.734;8.950;2023-05-10T02:44:42;8.07;;;7.27;;
4726;SDS011;2377;51.734;8.950;2023-05-10T02:47:14;6.90;;;6.10;;
4726;SDS011;2377;51.734;8.950;2023-05-10T02:49:41;8.50;;;7.40;;
4726;SDS011;2377;51.734;8.950;2023-05-10T02:52:09;9.13;;;7.97;;
4726;SDS011;2377;51.734;8.950;2023-05-10T02:54:43;8.97;;;8.00;;
4726;SDS011;2377;51.734;8.950;2023-05-10T02:57:15;11.83;;;6.93;;
4726;SDS011;2377;51.734;8.950;2023-05-10T02:59:48;8.20;;;7.10;;
4726;SDS011;2377;51.734;8.950;2023-05-10T03:02:15;8.70;;;7.53;;
4726;SDS011;2377;51.734;8.950;2023-05-10T03:04:42;8.67;;;6.90;;
4726;SDS011;2377;51.734;8.950;2023-05-10T03:07:09;9.90;;;8.03;;
4726;SDS011;2377;51.734;8.950;2023-05-10T03:09:37;9.60;;;7.37;;
4726;SDS011;2377;51.734;8.950;2023-05-10T03:12:07;10.87;;;8.27;;
4726;SDS011;2377;51.734;8.950;2023-05-10T03:14:45;9.23;;;7.67;;
4726;SDS011;2377;51.734;8.950;2023-05-10T03:17:24;9.37;;;7.53;;
4726;SDS011;2377;51.734;8.950;2023-05-10T03:19:57;10.33;;;7.93;;
4726;SDS011;2377;51.734;8.950;2023-05-10T03:22:30;12.10;;;9.47;;
4726;SDS011;2377;51.734;8.950;2023-05-10T03:25:04;10.67;;;8.90;;
4726;SDS011;2377;51.734;8.950;2023-05-10T03:27:38;8.70;;;7.23;;
4726;SDS011;2377;51.734;8.950;2023-05-10T03:30:10;8.63;;;7.73;;
4726;SDS011;2377;51.734;8.950;2023-05-10T03:32:39;9.33;;;7.97;;
4726;SDS011;2377;51.734;8.950;2023-05-10T03:35:06;10.17;;;8.00;;
4726;SDS011;2377;51.734;8.950;2023-05-10T03:37:34;10.40;;;8.10;;
4726;SDS011;2377;51.734;8.950;2023-05-10T03:40:01;8.77;;;7.20;;
4726;SDS011;2377;51.734;8.950;2023-05-10T03:42:29;9.83;;;8.07;;
4726;SDS011;2377;51.734;8.950;2023-05-10T03:44:58;10.67;;;9.10;;
4726;SDS011;2377;51.734;8.950;2023-05-10T03:47:25;10.70;;;8.60;;
4726;SDS011;2377;51.734;8.950;2023-05-10T03:49:52;11.23;;;9.73;;
4726;SDS011;2377;51.734;8.950;2023-05-10T03:52:19;9.80;;;8.10;;
4726;SDS011;2377;51.734;8.950;2023-05-10T03:54:46;9.23;;;7.67;;
4726;SDS011;2377;51.734;8.950;2023-05-10T03:57:13;8.30;;;6.83;;
4726;SDS011;2377;51.734;8.950;2023-05-10T03:59:40;8.80;;;7.90;;
4726;SDS011;2377;51.734;8.950;2023-05-10T04:02:08;9.43;;;8.20;;
4726;SDS011;2377;51.734;8.950;2023-05-10T04:04:35;10.30;;;8.50;;
4726;SDS011;2377;51.734;8.950;2023-05-10T04:07:02;8.50;;;7.37;;
4726;SDS011;2377;51.734;8.950;2023-05-10T04:09:30;7.70;;;6.83;;
4726;SDS011;2377;51.734;8.950;2023-05-10T04:11:58;7.70;;;6.63;;
4726;SDS011;2377;51.734;8.950;2023-05-10T04:14:27;5.93;;;5.10;;
4726;SDS011;2377;51.734;8.950;2023-05-10T04:16:54;6.23;;;5.63;;
4726;SDS011;2377;51.734;8.950;2023-05-10T04:19:22;5.00;;;4.50;;
4726;SDS011;2377;51.734;8.950;2023-05-10T04:21:53;4.90;;;3.90;;
4726;SDS011;2377;51.734;8.950;2023-05-10T04:24:20;5.20;;;4.20;;
4726;SDS011;2377;51.734;8.950;2023-05-10T04:26:47;4.70;;;3.60;;
4726;SDS011;2377;51.734;8.950;2023-05-10T04:29:14;4.63;;;3.70;;
4726;SDS011;2377;51.734;8.950;2023-05-10T04:31:41;3.40;;;2.53;;
4726;SDS011;2377;51.734;8.950;2023-05-10T04:34:08;3.23;;;2.50;;
4726;SDS011;2377;51.734;8.950;2023-05-10T04:36:36;5.80;;;2.30;;
4726;SDS011;2377;51.734;8.950;2023-05-10T04:39:03;2.83;;;2.03;;
4726;SDS011;2377;51.734;8.950;2023-05-10T04:41:31;3.23;;;2.00;;
4726;SDS011;2377;51.734;8.950;2023-05-10T04:43:58;3.60;;;2.40;;
4726;SDS011;2377;51.734;8.950;2023-05-10T04:46:25;3.80;;;3.00;;
4726;SDS011;2377;51.734;8.950;2023-05-10T04:48:52;3.10;;;2.23;;
4726;SDS011;2377;51.734;8.950;2023-05-10T04:51:19;3.57;;;2.00;;
4726;SDS011;2377;51.734;8.950;2023-05-10T04:53:47;3.13;;;2.17;;
4726;SDS011;2377;51.734;8.950;2023-05-10T04:56:14;3.00;;;2.23;;
4726;SDS011;2377;51.734;8.950;2023-05-10T04:58:42;2.90;;;2.40;;
4726;SDS011;2377;51.734;8.950;2023-05-10T05:01:09;3.60;;;2.83;;
4726;SDS011;2377;51.734;8.950;2023-05-10T05:03:36;4.03;;;2.73;;
4726;SDS011;2377;51.734;8.950;2023-05-10T05:06:03;3.67;;;2.60;;
4726;SDS011;2377;51.734;8.950;2023-05-10T05:08:33;3.40;;;2.60;;
4726;SDS011;2377;51.734;8.950;2023-05-10T05:11:01;3.83;;;2.60;;
4726;SDS011;2377;51.734;8.950;2023-05-10T05:13:28;3.40;;;2.40;;
4726;SDS011;2377;51.734;8.950;2023-05-10T05:15:55;3.30;;;2.53;;
4726;SDS011;2377;51.734;8.950;2023-05-10T05:18:22;3.00;;;2.53;;
4726;SDS011;2377;51.734;8.950;2023-05-10T05:20:50;3.07;;;2.43;;
4726;SDS011;2377;51.734;8.950;2023-05-10T05:23:17;3.00;;;2.27;;
4726;SDS011;2377;51.734;8.950;2023-05-10T05:25:45;2.90;;;2.13;;
4726;SDS011;2377;51.734;8.950;2023-05-10T05:28:14;5.60;;;4.00;;
4726;SDS011;2377;51.734;8.950;2023-05-10T05:30:42;4.10;;;1.90;;
4726;SDS011;2377;51.734;8.950;2023-05-10T05:33:09;2.30;;;1.63;;
4726;SDS011;2377;51.734;8.950;2023-05-10T05:35:36;3.13;;;1.90;;
4726;SDS011;2377;51.734;8.950;2023-05-10T05:38:03;2.10;;;1.20;;
4726;SDS011;2377;51.734;8.950;2023-05-10T05:40:31;2.20;;;1.30;;
4726;SDS011;2377;51.734;8.950;2023-05-10T05:42:58;2.10;;;1.47;;
4726;SDS011;2377;51.734;8.950;2023-05-10T05:45:26;2.27;;;1.70;;
4726;SDS011;2377;51.734;8.950;2023-05-10T05:47:53;2.60;;;1.83;;
4726;SDS011;2377;51.734;8.950;2023-05-10T05:50:20;2.63;;;1.70;;
4726;SDS011;2377;51.734;8.950;2023-05-10T05:52:47;3.10;;;1.63;;
4726;SDS011;2377;51.734;8.950;2023-05-10T05:55:15;2.60;;;1.40;;
4726;SDS011;2377;51.734;8.950;2023-05-10T05:57:42;3.37;;;1.90;;
4726;SDS011;2377;51.734;8.950;2023-05-10T06:00:09;3.00;;;1.80;;
4726;SDS011;2377;51.734;8.950;2023-05-10T06:02:38;2.30;;;1.50;;
4726;SDS011;2377;51.734;8.950;2023-05-10T06:05:06;3.53;;;2.43;;
4726;SDS011;2377;51.734;8.950;2023-05-10T06:07:34;3.00;;;2.13;;
4726;SDS011;2377;51.734;8.950;2023-05-10T06:10:01;4.37;;;2.67;;
4726;SDS011;2377;51.734;8.950;2023-05-10T06:12:29;5.87;;;3.67;;
4726;SDS011;2377;51.734;8.950;2023-05-10T06:14:56;5.33;;;3.27;;
4726;SDS011;2377;51.734;8.950;2023-05-10T06:17:23;4.87;;;3.13;;
4726;SDS011;2377;51.734;8.950;2023-05-10T06:19:52;5.40;;;2.83;;
4726;SDS011;2377;51.734;8.950;2023-05-10T06:22:19;3.83;;;2.80;;
4726;SDS011;2377;51.734;8.950;2023-05-10T06:24:47;3.03;;;2.43;;
4726;SDS011;2377;51.734;8.950;2023-05-10T06:27:15;4.13;;;2.70;;
4726;SDS011;2377;51.734;8.950;2023-05-10T06:29:42;3.40;;;2.33;;
4726;SDS011;2377;51.734;8.950;2023-05-10T06:32:09;4.80;;;2.30;;
4726;SDS011;2377;51.734;8.950;2023-05-10T06:34:36;4.40;;;3.40;;
4726;SDS011;2377;51.734;8.950;2023-05-10T06:37:04;3.60;;;2.67;;
4726;SDS011;2377;51.734;8.950;2023-05-10T06:39:31;3.60;;;2.83;;
4726;SDS011;2377;51.734;8.950;2023-05-10T06:41:59;5.40;;;3.57;;
4726;SDS011;2377;51.734;8.950;2023-05-10T06:44:27;3.90;;;3.17;;
4726;SDS011;2377;51.734;8.950;2023-05-10T06:46:55;5.07;;;3.17;;
4726;SDS011;2377;51.734;8.950;2023-05-10T06:49:22;4.80;;;3.37;;
4726;SDS011;2377;51.734;8.950;2023-05-10T06:51:49;4.57;;;2.93;;
4726;SDS011;2377;51.734;8.950;2023-05-10T06:54:18;5.40;;;3.30;;
4726;SDS011;2377;51.734;8.950;2023-05-10T06:56:45;6.30;;;3.20;;
4726;SDS011;2377;51.734;8.950;2023-05-10T06:59:12;5.93;;;3.33;;
4726;SDS011;2377;51.734;8.950;2023-05-10T07:01:40;3.97;;;2.60;;
4726;SDS011;2377;51.734;8.950;2023-05-10T07:04:07;6.30;;;2.90;;
4726;SDS011;2377;51.734;8.950;2023-05-10T07:06:34;4.23;;;3.20;;
4726;SDS011;2377;51.734;8.950;2023-05-10T07:09:01;4.83;;;2.70;;
4726;SDS011;2377;51.734;8.950;2023-05-10T07:11:30;4.60;;;2.90;;
4726;SDS011;2377;51.734;8.950;2023-05-10T07:13:57;5.60;;;2.87;;
4726;SDS011;2377;51.734;8.950;2023-05-10T07:16:24;4.53;;;2.57;;
4726;SDS011;2377;51.734;8.950;2023-05-10T07:18:52;5.40;;;2.93;;
4726;SDS011;2377;51.734;8.950;2023-05-10T07:21:19;4.77;;;3.40;;
4726;SDS011;2377;51.734;8.950;2023-05-10T07:23:46;8.10;;;3.30;;
4726;SDS011;2377;51.734;8.950;2023-05-10T07:26:13;5.77;;;2.77;;
4726;SDS011;2377;51.734;8.950;2023-05-10T07:28:42;7.70;;;3.00;;
4726;SDS011;2377;51.734;8.950;2023-05-10T07:31:09;6.53;;;3.60;;
4726;SDS011;2377;51.734;8.950;2023-05-10T07:33:36;4.30;;;2.90;;
4726;SDS011;2377;51.734;8.950;2023-05-10T07:36:03;5.30;;;2.90;;
4726;SDS011;2377;51.734;8.950;2023-05-10T07:38:30;5.73;;;2.93;;
4726;SDS011;2377;51.734;8.950;2023-05-10T07:40:57;4.90;;;3.17;;
4726;SDS011;2377;51.734;8.950;2023-05-10T07:43:24;4.70;;;3.17;;
4726;SDS011;2377;51.734;8.950;2023-05-10T07:45:53;11.00;;;3.40;;
4726;SDS011;2377;51.734;8.950;2023-05-10T07:48:22;4.23;;;3.00;;
4726;SDS011;2377;51.734;8.950;2023-05-10T07:50:49;5.23;;;3.53;;
4726;SDS011;2377;51.734;8.950;2023-05-10T07:53:16;6.63;;;4.10;;
4726;SDS011;2377;51.734;8.950;2023-05-10T07:55:44;6.57;;;3.97;;
4726;SDS011;2377;51.734;8.950;2023-05-10T07:58:16;6.37;;;3.97;;
4726;SDS011;2377;51.734;8.950;2023-05-10T08:00:43;5.67;;;4.37;;
4726;SDS011;2377;51.734;8.950;2023-05-10T08:03:12;7.00;;;5.20;;
4726;SDS011;2377;51.734;8.950;2023-05-10T08:05:39;7.47;;;5.27;;
4726;SDS011;2377;51.734;8.950;2023-05-10T08:08:06;8.40;;;5.37;;
4726;SDS011;2377;51.734;8.950;2023-05-10T08:10:33;6.77;;;5.30;;
4726;SDS011;2377;51.734;8.950;2023-05-10T08:13:00;6.60;;;5.27;;
4726;SDS011;2377;51.734;8.950;2023-05-10T08:15:27;9.17;;;6.00;;
4726;SDS011;2377;51.734;8.950;2023-05-10T08:17:54;6.13;;;5.20;;
4726;SDS011;2377;51.734;8.950;2023-05-10T08:20:22;8.77;;;5.67;;
4726;SDS011;2377;51.734;8.950;2023-05-10T08:22:50;7.60;;;5.33;;
4726;SDS011;2377;51.734;8.950;2023-05-10T08:25:17;7.90;;;5.30;;
4726;SDS011;2377;51.734;8.950;2023-05-10T08:27:44;10.63;;;6.57;;
4726;SDS011;2377;51.734;8.950;2023-05-10T08:30:11;10.60;;;7.23;;
4726;SDS011;2377;51.734;8.950;2023-05-10T08:32:38;11.57;;;7.30;;
4726;SDS011;2377;51.734;8.950;2023-05-10T08:35:06;12.90;;;6.77;;
4726;SDS011;2377;51.734;8.950;2023-05-10T08:37:34;12.40;;;7.60;;
4726;SDS011;2377;51.734;8.950;2023-05-10T08:40:02;11.47;;;6.73;;
4726;SDS011;2377;51.734;8.950;2023-05-10T08:42:30;14.23;;;7.20;;
4726;SDS011;2377;51.734;8.950;2023-05-10T08:45:01;10.20;;;7.17;;
4726;SDS011;2377;51.734;8.950;2023-05-10T08:47:30;9.70;;;7.63;;
4726;SDS011;2377;51.734;8.950;2023-05-10T08:49:58;8.10;;;5.60;;
4726;SDS011;2377;51.734;8.950;2023-05-10T08:52:26;11.53;;;5.97;;
4726;SDS011;2377;51.734;8.950;2023-05-10T08:54:58;9.23;;;6.10;;
4726;SDS011;2377;51.734;8.950;2023-05-10T08:57:25;8.60;;;5.20;;
4726;SDS011;2377;51.734;8.950;2023-05-10T08:59:52;7.23;;;4.70;;
4726;SDS011;2377;51.734;8.950;2023-05-10T09:02:20;6.77;;;4.60;;
4726;SDS011;2377;51.734;8.950;2023-05-10T09:04:49;6.47;;;5.33;;
4726;SDS011;2377;51.734;8.950;2023-05-10T09:07:16;9.23;;;7.07;;
4726;SDS011;2377;51.734;8.950;2023-05-10T09:09:44;11.07;;;7.63;;
4726;SDS011;2377;51.734;8.950;2023-05-10T09:12:14;14.20;;;9.90;;
4726;SDS011;2377;51.734;8.950;2023-05-10T09:14:41;18.07;;;11.83;;
4726;SDS011;2377;51.734;8.950;2023-05-10T09:17:11;14.53;;;11.10;;
4726;SDS011;2377;51.734;8.950;2023-05-10T09:19:38;14.67;;;11.30;;
4726;SDS011;2377;51.734;8.950;2023-05-10T09:22:06;18.87;;;13.33;;
4726;SDS011;2377;51.734;8.950;2023-05-10T09:24:33;14.63;;;10.17;;
4726;SDS011;2377;51.734;8.950;2023-05-10T09:27:01;17.23;;;10.33;;
4726;SDS011;2377;51.734;8.950;2023-05-10T09:29:40;13.20;;;9.00;;
4726;SDS011;2377;51.734;8.950;2023-05-10T09:32:09;14.90;;;10.33;;
4726;SDS011;2377;51.734;8.950;2023-05-10T09:34:36;14.30;;;10.10;;
4726;SDS011;2377;51.734;8.950;2023-05-10T09:37:05;14.30;;;10.17;;
4726;SDS011;2377;51.734;8.950;2023-05-10T09:39:33;13.60;;;10.23;;
4726;SDS011;2377;51.734;8.950;2023-05-10T09:42:03;17.20;;;11.83;;
4726;SDS011;2377;51.734;8.950;2023-05-10T09:44:32;16.80;;;12.40;;
4726;SDS011;2377;51.734;8.950;2023-05-10T09:47:02;18.50;;;13.13;;
4726;SDS011;2377;51.734;8.950;2023-05-10T09:49:30;20.00;;;13.37;;
4726;SDS011;2377;51.734;8.950;2023-05-10T09:52:01;22.23;;;15.80;;
4726;SDS011;2377;51.734;8.950;2023-05-10T09:54:32;20.43;;;14.20;;
4726;SDS011;2377;51.734;8.950;2023-05-10T09:57:01;23.00;;;15.20;;
4726;SDS011;2377;51.734;8.950;2023-05-10T09:59:28;20.83;;;14.33;;
4726;SDS011;2377;51.734;8.950;2023-05-10T10:01:56;28.30;;;17.53;;
4726;SDS011;2377;51.734;8.950;2023-05-10T10:04:26;20.47;;;14.70;;
4726;SDS011;2377;51.734;8.950;2023-05-10T10:07:01;27.50;;;19.40;;
4726;SDS011;2377;51.734;8.950;2023-05-10T10:09:31;23.17;;;15.93;;
4726;SDS011;2377;51.734;8.950;2023-05-10T10:11:59;29.67;;;20.17;;
4726;SDS011;2377;51.734;8.950;2023-05-10T10:14:27;23.73;;;15.17;;
4726;SDS011;2377;51.734;8.950;2023-05-10T10:16:55;24.53;;;15.80;;
4726;SDS011;2377;51.734;8.950;2023-05-10T10:19:22;20.63;;;14.40;;
4726;SDS011;2377;51.734;8.950;2023-05-10T10:21:50;24.40;;;15.30;;
4726;SDS011;2377;51.734;8.950;2023-05-10T10:24:17;23.40;;;14.47;;
4726;SDS011;2377;51.734;8.950;2023-05-10T10:26:44;22.10;;;15.20;;
4726;SDS011;2377;51.734;8.950;2023-05-10T10:29:18;22.87;;;16.20;;
4726;SDS011;2377;51.734;8.950;2023-05-10T10:31:57;23.97;;;14.50;;
4726;SDS011;2377;51.734;8.950;2023-05-10T10:34:43;23.30;;;16.50;;
4726;SDS011;2377;51.734;8.950;2023-05-10T10:37:12;23.53;;;15.97;;
4726;SDS011;2377;51.734;8.950;2023-05-10T10:39:39;24.80;;;15.30;;
4726;SDS011;2377;51.734;8.950;2023-05-10T10:42:06;23.37;;;16.20;;
4726;SDS011;2377;51.734;8.950;2023-05-10T10:44:36;25.53;;;16.50;;
4726;SDS011;2377;51.734;8.950;2023-05-10T10:47:09;25.07;;;17.43;;
4726;SDS011;2377;51.734;8.950;2023-05-10T10:50:05;25.37;;;17.37;;
4726;SDS011;2377;51.734;8.950;2023-05-10T10:52:36;24.27;;;15.20;;
4726;SDS011;2377;51.734;8.950;2023-05-10T10:55:05;22.20;;;15.23;;
4726;SDS011;2377;51.734;8.950;2023-05-10T10:57:42;21.03;;;13.60;;
4726;SDS011;2377;51.734;8.950;2023-05-10T11:00:21;20.90;;;13.70;;
4726;SDS011;2377;51.734;8.950;2023-05-10T11:02:56;23.60;;;14.60;;
4726;SDS011;2377;51.734;8.950;2023-05-10T11:08:14;22.03;;;13.60;;
4726;SDS011;2377;51.734;8.950;2023-05-10T11:11:01;26.50;;;16.53;;
4726;SDS011;2377;51.734;8.950;2023-05-10T11:13:33;21.83;;;14.27;;
4726;SDS011;2377;51.734;8.950;2023-05-10T11:18:51;22.43;;;15.90;;
4726;SDS011;2377;51.734;8.950;2023-05-10T11:21:28;22.93;;;15.90;;
4726;SDS011;2377;51.734;8.950;2023-05-10T11:23:57;29.13;;;16.03;;
4726;SDS011;2377;51.734;8.950;2023-05-10T11:26:30;26.00;;;18.30;;
4726;SDS011;2377;51.734;8.950;2023-05-10T11:28:59;22.70;;;16.00;;
4726;SDS011;2377;51.734;8.950;2023-05-10T11:31:29;24.57;;;17.23;;
4726;SDS011;2377;51.734;8.950;2023-05-10T11:33:56;25.73;;;16.67;;
4726;SDS011;2377;51.734;8.950;2023-05-10T11:36:27;25.87;;;17.00;;
4726;SDS011;2377;51.734;8.950;2023-05-10T11:38:57;26.10;;;18.03;;
4726;SDS011;2377;51.734;8.950;2023-05-10T11:41:24;27.97;;;16.93;;
4726;SDS011;2377;51.734;8.950;2023-05-10T11:43:54;25.23;;;17.23;;
4726;SDS011;2377;51.734;8.950;2023-05-10T11:46:23;25.07;;;14.87;;
4726;SDS011;2377;51.734;8.950;2023-05-10T11:48:54;19.80;;;14.10;;
4726;SDS011;2377;51.734;8.950;2023-05-10T11:51:26;23.27;;;15.40;;
4726;SDS011;2377;51.734;8.950;2023-05-10T11:53:54;20.47;;;13.67;;
4726;SDS011;2377;51.734;8.950;2023-05-10T11:56:24;22.17;;;14.13;;
4726;SDS011;2377;51.734;8.950;2023-05-10T11:58:52;23.10;;;15.00;;
4726;SDS011;2377;51.734;8.950;2023-05-10T12:01:21;19.10;;;13.87;;
4726;SDS011;2377;51.734;8.950;2023-05-10T12:03:49;18.97;;;13.17;;
4726;SDS011;2377;51.734;8.950;2023-05-10T12:06:19;20.53;;;14.20;;
4726;SDS011;2377;51.734;8.950;2023-05-10T12:08:47;18.50;;;13.33;;
4726;SDS011;2377;51.734;8.950;2023-05-10T12:11:17;25.17;;;17.23;;
4726;SDS011;2377;51.734;8.950;2023-05-10T12:13:47;25.03;;;18.53;;
4726;SDS011;2377;51.734;8.950;2023-05-10T12:16:18;21.40;;;14.90;;
4726;SDS011;2377;51.734;8.950;2023-05-10T12:18:48;23.50;;;15.50;;
4726;SDS011;2377;51.734;8.950;2023-05-10T12:21:16;25.33;;;16.07;;
4726;SDS011;2377;51.734;8.950;2023-05-10T12:23:44;26.97;;;18.10;;
4726;SDS011;2377;51.734;8.950;2023-05-10T12:26:12;26.23;;;17.23;;
4726;SDS011;2377;51.734;8.950;2023-05-10T12:28:40;28.43;;;18.60;;
4726;SDS011;2377;51.734;8.950;2023-05-10T12:31:08;23.93;;;16.83;;
4726;SDS011;2377;51.734;8.950;2023-05-10T12:33:36;22.03;;;14.60;;
4726;SDS011;2377;51.734;8.950;2023-05-10T12:36:06;25.03;;;17.20;;
4726;SDS011;2377;51.734;8.950;2023-05-10T12:38:35;30.30;;;17.30;;
4726;SDS011;2377;51.734;8.950;2023-05-10T12:41:04;28.60;;;17.20;;
4726;SDS011;2377;51.734;8.950;2023-05-10T12:43:33;24.47;;;17.20;;
4726;SDS011;2377;51.734;8.950;2023-05-10T12:46:04;21.40;;;15.10;;
4726;SDS011;2377;51.734;8.950;2023-05-10T12:48:34;23.93;;;17.80;;
4726;SDS011;2377;51.734;8.950;2023-05-10T12:51:02;21.90;;;16.17;;
4726;SDS011;2377;51.734;8.950;2023-05-10T12:53:33;26.47;;;17.53;;
4726;SDS011;2377;51.734;8.950;2023-05-10T12:56:00;21.03;;;15.00;;
4726;SDS011;2377;51.734;8.950;2023-05-10T12:58:28;25.97;;;17.30;;
4726;SDS011;2377;51.734;8.950;2023-05-10T13:00:55;21.37;;;15.60;;
4726;SDS011;2377;51.734;8.950;2023-05-10T13:03:22;18.07;;;12.00;;
4726;SDS011;2377;51.734;8.950;2023-05-10T13:05:51;13.80;;;9.30;;
4726;SDS011;2377;51.734;8.950;2023-05-10T13:08:18;8.93;;;6.40;;
4726;SDS011;2377;51.734;8.950;2023-05-10T13:10:45;8.30;;;6.27;;
4726;SDS011;2377;51.734;8.950;2023-05-10T13:13:12;5.43;;;3.93;;
4726;SDS011;2377;51.734;8.950;2023-05-10T13:15:39;6.70;;;4.60;;
4726;SDS011;2377;51.734;8.950;2023-05-10T13:18:06;10.13;;;5.07;;
4726;SDS011;2377;51.734;8.950;2023-05-10T13:20:33;8.47;;;5.43;;
4726;SDS011;2377;51.734;8.950;2023-05-10T13:23:02;6.67;;;5.13;;
4726;SDS011;2377;51.734;8.950;2023-05-10T13:25:29;6.90;;;4.80;;
4726;SDS011;2377;51.734;8.950;2023-05-10T13:27:56;7.57;;;4.30;;
4726;SDS011;2377;51.734;8.950;2023-05-10T13:30:23;7.67;;;4.50;;
4726;SDS011;2377;51.734;8.950;2023-05-10T13:32:50;8.83;;;5.37;;
4726;SDS011;2377;51.734;8.950;2023-05-10T13:35:17;9.00;;;5.70;;
4726;SDS011;2377;51.734;8.950;2023-05-10T13:37:44;9.33;;;5.83;;
4726;SDS011;2377;51.734;8.950;2023-05-10T13:40:13;10.40;;;6.03;;
4726;SDS011;2377;51.734;8.950;2023-05-10T13:42:40;10.40;;;7.03;;
4726;SDS011;2377;51.734;8.950;2023-05-10T13:45:08;9.40;;;6.50;;
4726;SDS011;2377;51.734;8.950;2023-05-10T13:47:37;10.17;;;6.83;;
4726;SDS011;2377;51.734;8.950;2023-05-10T13:50:04;11.97;;;7.00;;
4726;SDS011;2377;51.734;8.950;2023-05-10T13:52:32;13.17;;;7.33;;
4726;SDS011;2377;51.734;8.950;2023-05-10T13:55:00;10.30;;;7.23;;
4726;SDS011;2377;51.734;8.950;2023-05-10T13:57:29;11.50;;;8.17;;
4726;SDS011;2377;51.734;8.950;2023-05-10T13:59:56;14.60;;;9.67;;
4726;SDS011;2377;51.734;8.950;2023-05-10T14:02:23;13.70;;;8.80;;
4726;SDS011;2377;51.734;8.950;2023-05-10T14:04:52;11.43;;;8.50;;
4726;SDS011;2377;51.734;8.950;2023-05-10T14:07:19;12.67;;;8.10;;
4726;SDS011;2377;51.734;8.950;2023-05-10T14:09:46;12.00;;;7.50;;
4726;SDS011;2377;51.734;8.950;2023-05-10T14:12:13;12.57;;;7.80;;
4726;SDS011;2377;51.734;8.950;2023-05-10T14:14:42;11.23;;;8.03;;
4726;SDS011;2377;51.734;8.950;2023-05-10T14:17:10;11.80;;;8.23;;
4726;SDS011;2377;51.734;8.950;2023-05-10T14:19:37;11.20;;;7.87;;
4726;SDS011;2377;51.734;8.950;2023-05-10T14:22:04;16.20;;;9.37;;
4726;SDS011;2377;51.734;8.950;2023-05-10T14:24:31;11.23;;;8.07;;
4726;SDS011;2377;51.734;8.950;2023-05-10T14:26:58;12.70;;;7.27;;
4726;SDS011;2377;51.734;8.950;2023-05-10T14:29:25;12.33;;;7.90;;
4726;SDS011;2377;51.734;8.950;2023-05-10T14:31:54;11.10;;;7.70;;
4726;SDS011;2377;51.734;8.950;2023-05-10T14:34:21;11.07;;;7.70;;
4726;SDS011;2377;51.734;8.950;2023-05-10T14:36:48;12.10;;;7.90;;
4726;SDS011;2377;51.734;8.950;2023-05-10T14:39:15;11.13;;;7.60;;
4726;SDS011;2377;51.734;8.950;2023-05-10T14:41:42;10.83;;;7.30;;
4726;SDS011;2377;51.734;8.950;2023-05-10T14:44:10;16.47;;;10.37;;
4726;SDS011;2377;51.734;8.950;2023-05-10T14:46:37;13.80;;;9.90;;
4726;SDS011;2377;51.734;8.950;2023-05-10T14:49:06;14.43;;;9.23;;
4726;SDS011;2377;51.734;8.950;2023-05-10T14:51:33;12.80;;;9.23;;
4726;SDS011;2377;51.734;8.950;2023-05-10T14:54:01;12.40;;;9.30;;
4726;SDS011;2377;51.734;8.950;2023-05-10T14:56:29;13.60;;;9.87;;
4726;SDS011;2377;51.734;8.950;2023-05-10T14:58:56;16.90;;;9.87;;
4726;SDS011;2377;51.734;8.950;2023-05-10T15:01:24;14.20;;;9.37;;
4726;SDS011;2377;51.734;8.950;2023-05-10T15:03:51;12.33;;;8.30;;
4726;SDS011;2377;51.734;8.950;2023-05-10T15:06:20;13.30;;;8.03;;
4726;SDS011;2377;51.734;8.950;2023-05-10T15:08:51;15.47;;;8.27;;
4726;SDS011;2377;51.734;8.950;2023-05-10T15:11:18;10.97;;;7.30;;
4726;SDS011;2377;51.734;8.950;2023-05-10T15:13:45;9.90;;;6.67;;
4726;SDS011;2377;51.734;8.950;2023-05-10T15:16:12;9.50;;;6.30;;
4726;SDS011;2377;51.734;8.950;2023-05-10T15:18:39;7.27;;;5.20;;
4726;SDS011;2377;51.734;8.950;2023-05-10T15:21:06;8.13;;;5.43;;
4726;SDS011;2377;51.734;8.950;2023-05-10T15:23:35;8.57;;;4.37;;
4726;SDS011;2377;51.734;8.950;2023-05-10T15:26:02;6.40;;;4.43;;
4726;SDS011;2377;51.734;8.950;2023-05-10T15:28:29;6.97;;;4.53;;